Time;durP1;ratioP1;P1;durP2;ratioP2;P2;SDS_P1;SDS_P2;PMS_P1;PMS_P2;Temp;Humidity;BMP_temperature;BMP_pressure;BME280_temperature;BME280_humidity;BME280_pressure;Samples;Min_cycle;Max_cycle;Signal;HPM_P1;HPM_P2
2022/04/28 00:01:50;;;;;;;;;;;5.00;99.90;;;;;;5056731;28;19925;-70
2022/04/28 00:04:16;;;;;;;;;;;5.00;99.90;;;;;;5055813;28;19975;-69
2022/04/28 00:06:42;;;;;;;;;;;5.00;99.90;;;;;;5056645;28;20364;-71
2022/04/28 00:09:07;;;;;;;;;;;5.00;99.90;;;;;;5056583;28;19929;-71
2022/04/28 00:11:33;;;;;;;;;;;5.00;99.90;;;;;;5056623;28;19924;-69
2022/04/28 00:13:59;;;;;;;;;;;5.50;99.90;;;;;;5055276;28;20338;-71
2022/04/28 00:16:26;;;;;;;;;;;6.00;99.90;;;;;;5089321;28;19976;-71
2022/04/28 00:18:51;;;;;;;;;;;5.90;99.90;;;;;;5038888;28;19925;-70
2022/04/28 00:21:17;;;;;;;;;;;5.20;99.90;;;;;;5056472;28;19925;-71
2022/04/28 00:23:42;;;;;;;;;;;5.00;99.90;;;;;;5056551;28;20012;-71
2022/04/28 00:26:08;;;;;;;;;;;5.00;99.90;;;;;;5055007;28;19929;-69
2022/04/28 00:28:34;;;;;;;;;;;4.90;99.90;;;;;;5056179;28;20020;-71
2022/04/28 00:30:59;;;;;;;;;;;5.20;99.90;;;;;;5056179;28;19925;-71
2022/04/28 00:33:26;;;;;;;;;;;6.10;99.90;;;;;;5054954;28;19925;-69
2022/04/28 00:35:53;;;;;;;;;;;5.00;99.90;;;;;;5056031;28;20409;-70
2022/04/28 00:38:19;;;;;;;;;;;5.80;99.90;;;;;;5055123;28;20384;-70
2022/04/28 00:40:45;;;;;;;;;;;5.10;99.90;;;;;;5055953;28;19932;-71
2022/04/28 00:43:19;;;;;;;;;;;7.00;99.90;;;;;;5055013;28;19925;-70
2022/04/28 00:45:48;;;;;;;;;;;3.60;99.90;;;;;;5055998;28;19928;-69
2022/04/28 00:51:00;;;;;;;;;;;5.60;99.90;;;;;;5055924;28;20067;-71
2022/04/28 00:53:26;;;;;;;;;;;5.00;99.90;;;;;;5055822;28;19929;-71
2022/04/28 00:55:52;;;;;;;;;;;5.10;99.90;;;;;;5054764;28;19932;-71
2022/04/28 00:58:18;;;;;;;;;;;6.70;99.90;;;;;;5055554;28;20292;-70
2022/04/28 01:00:44;;;;;;;;;;;5.90;99.90;;;;;;5055727;28;19932;-70
2022/04/28 01:03:10;;;;;;;;;;;4.90;99.90;;;;;;5055280;28;20380;-71
2022/04/28 01:05:36;;;;;;;;;;;6.20;99.90;;;;;;5055597;28;20007;-69
2022/04/28 01:08:01;;;;;;;;;;;5.30;99.90;;;;;;5055515;28;20002;-70
2022/04/28 01:10:27;;;;;;;;;;;4.70;99.90;;;;;;5037802;28;19925;-71
2022/04/28 01:12:53;;;;;;;;;;;5.70;99.90;;;;;;5054354;28;19964;-68
2022/04/28 01:15:18;;;;;;;;;;;4.80;99.90;;;;;;5055572;28;19933;-70
2022/04/28 01:17:44;;;;;;;;;;;4.80;99.90;;;;;;5055452;28;20331;-69
2022/04/28 01:20:09;;;;;;;;;;;5.80;99.90;;;;;;5054209;28;19925;-71
2022/04/28 01:22:35;;;;;;;;;;;4.90;99.90;;;;;;5054305;28;19931;-71
2022/04/28 01:25:07;;;;;;;;;;;3.30;99.90;;;;;;5055139;28;20403;-70
2022/04/28 01:27:33;;;;;;;;;;;4.90;99.90;;;;;;5055063;28;19925;-70
2022/04/28 01:29:59;;;;;;;;;;;4.90;99.90;;;;;;5054337;28;19979;-71
2022/04/28 01:32:25;;;;;;;;;;;5.70;99.90;;;;;;5055023;28;19925;-71
2022/04/28 01:34:51;;;;;;;;;;;4.90;99.90;;;;;;5055245;28;19932;-71
2022/04/28 01:37:17;;;;;;;;;;;4.80;99.90;;;;;;5055057;28;19925;-70
2022/04/28 01:39:43;;;;;;;;;;;4.80;99.90;;;;;;5054823;28;19971;-71
2022/04/28 01:42:09;;;;;;;;;;;4.90;99.90;;;;;;5053479;28;19983;-69
2022/04/28 01:44:34;;;;;;;;;;;6.10;99.90;;;;;;5054033;28;19925;-69
2022/04/28 01:47:00;;;;;;;;;;;4.90;99.90;;;;;;5053843;28;20352;-70
2022/04/28 01:49:26;;;;;;;;;;;5.40;99.90;;;;;;5054799;28;19970;-70
2022/04/28 01:57:19;;;;;;;;;;;5.10;99.90;;;;;;5087604;28;19929;-70
2022/04/28 01:59:45;;;;;;;;;;;5.20;99.90;;;;;;5054527;28;20331;-69
2022/04/28 02:02:10;;;;;;;;;;;5.40;99.90;;;;;;5054279;28;20338;-70
2022/04/28 02:04:36;;;;;;;;;;;5.90;99.90;;;;;;5054405;28;19925;-70
2022/04/28 02:07:01;;;;;;;;;;;5.30;99.90;;;;;;5054446;28;20019;-71
2022/04/28 02:09:27;;;;;;;;;;;5.40;99.90;;;;;;5054276;28;20302;-71
2022/04/28 02:11:53;;;;;;;;;;;5.40;99.90;;;;;;5054498;28;19924;-70
2022/04/28 02:14:18;;;;;;;;;;;5.80;99.90;;;;;;5053483;28;19928;-70
2022/04/28 02:16:44;;;;;;;;;;;5.80;99.90;;;;;;5054237;28;19972;-70
2022/04/28 02:19:10;;;;;;;;;;;5.60;99.90;;;;;;5054216;28;19932;-71
2022/04/28 02:21:35;;;;;;;;;;;6.30;99.90;;;;;;5054080;28;19948;-71
2022/04/28 02:24:01;;;;;;;;;;;7.00;99.90;;;;;;5054272;28;19925;-69
2022/04/28 02:26:26;;;;;;;;;;;5.60;99.90;;;;;;5053007;28;20066;-71
2022/04/28 02:28:52;;;;;;;;;;;5.70;99.90;;;;;;5054225;28;19980;-71
2022/04/28 02:31:17;;;;;;;;;;;6.20;99.90;;;;;;5086734;28;19924;-71
2022/04/28 02:33:43;;;;;;;;;;;5.70;99.90;;;;;;5053843;28;19925;-71
2022/04/28 02:36:08;;;;;;;;;;;5.70;99.90;;;;;;5053938;28;19928;-70
2022/04/28 02:38:34;;;;;;;;;;;6.30;99.90;;;;;;5053893;28;19925;-70
2022/04/28 02:41:00;;;;;;;;;;;5.80;99.90;;;;;;5052355;28;19924;-71
2022/04/28 02:43:25;;;;;;;;;;;5.80;99.90;;;;;;5053908;28;20015;-70
2022/04/28 02:45:51;;;;;;;;;;;5.80;99.90;;;;;;5052930;28;19925;-69
2022/04/28 02:48:16;;;;;;;;;;;5.80;99.90;;;;;;5053719;28;20303;-71
2022/04/28 02:50:42;;;;;;;;;;;5.90;99.90;;;;;;5053762;28;19977;-69
2022/04/28 02:53:07;;;;;;;;;;;6.30;99.90;;;;;;5052678;28;19925;-71
2022/04/28 02:55:33;;;;;;;;;;;7.20;99.90;;;;;;5053532;28;19932;-70
2022/04/28 02:57:58;;;;;;;;;;;5.90;99.90;;;;;;5052251;28;19956;-70
2022/04/28 03:00:24;;;;;;;;;;;6.40;99.90;;;;;;5053655;28;19924;-71
2022/04/28 03:02:49;;;;;;;;;;;6.00;99.90;;;;;;5053357;28;19931;-71
2022/04/28 03:05:15;;;;;;;;;;;6.00;99.90;;;;;;5086211;28;19925;-71
2022/04/28 03:10:49;;;;;;;;;;;6.00;99.90;;;;;;5053399;28;19932;-70
2022/04/28 03:13:18;;;;;;;;;;;6.10;99.90;;;;;;5053639;28;20411;-70
2022/04/28 03:15:45;;;;;;;;;;;6.10;99.90;;;;;;5053520;28;20296;-71
2022/04/28 03:18:12;;;;;;;;;;;6.40;99.90;;;;;;5053381;28;19929;-70
2022/04/28 03:20:37;;;;;;;;;;;6.10;99.90;;;;;;5053347;28;20291;-69
2022/04/28 03:23:03;;;;;;;;;;;6.30;99.90;;;;;;5053184;28;19924;-70
2022/04/28 03:25:28;;;;;;;;;;;6.10;99.90;;;;;;5053498;28;20388;-71
2022/04/28 03:27:56;;;;;;;;;;;6.10;99.90;;;;;;5052274;28;20410;-69
2022/04/28 03:30:22;;;;;;;;;;;6.20;99.90;;;;;;5053436;28;19939;-70
2022/04/28 03:32:47;;;;;;;;;;;5.40;99.90;;;;;;5052395;28;19925;-70
2022/04/28 03:35:14;;;;;;;;;;;7.00;99.90;;;;;;5052368;28;19929;-71
2022/04/28 03:37:39;;;;;;;;;;;6.50;99.90;;;;;;5053239;28;20414;-71
2022/04/28 03:40:05;;;;;;;;;;;5.80;99.90;;;;;;5053034;28;20038;-71
2022/04/28 03:42:31;;;;;;;;;;;6.30;99.90;;;;;;5053253;28;19948;-69
2022/04/28 03:44:56;;;;;;;;;;;6.30;99.90;;;;;;5053234;28;19972;-71
2022/04/28 03:47:22;;;;;;;;;;;5.10;99.90;;;;;;5053119;28;20037;-72
2022/04/28 03:49:47;;;;;;;;;;;7.10;99.90;;;;;;5053173;28;19932;-69
2022/04/28 03:52:13;;;;;;;;;;;6.70;99.90;;;;;;5053092;28;19929;-70
2022/04/28 03:54:38;;;;;;;;;;;6.60;99.90;;;;;;5053326;28;19929;-70
2022/04/28 03:57:04;;;;;;;;;;;6.40;99.90;;;;;;5052100;28;20287;-71
2022/04/28 03:59:30;;;;;;;;;;;6.40;99.90;;;;;;5053337;28;19931;-71
2022/04/28 04:01:56;;;;;;;;;;;6.40;99.90;;;;;;5052998;28;19925;-70
2022/04/28 04:04:21;;;;;;;;;;;7.00;99.90;;;;;;5053080;28;19925;-71
2022/04/28 04:06:47;;;;;;;;;;;6.40;99.90;;;;;;5052931;28;20387;-71
2022/04/28 04:09:12;;;;;;;;;;;6.40;99.90;;;;;;5053752;28;19924;-70
2022/04/28 04:11:38;;;;;;;;;;;6.40;99.90;;;;;;5056494;28;19925;-71
2022/04/28 04:14:03;;;;;;;;;;;7.50;99.90;;;;;;5056536;28;19928;-70
2022/04/28 04:16:29;;;;;;;;;;;7.90;99.90;;;;;;5056664;28;20004;-70
2022/04/28 04:18:54;;;;;;;;;;;6.40;99.90;;;;;;5055504;28;19928;-71
2022/04/28 04:21:20;;;;;;;;;;;6.40;99.90;;;;;;5056252;28;19931;-71
2022/04/28 04:23:46;;;;;;;;;;;6.30;99.90;;;;;;5056424;28;20399;-72
2022/04/28 04:26:12;;;;;;;;;;;6.30;99.90;;;;;;5056210;28;19980;-71
2022/04/28 04:28:37;;;;;;;;;;;6.60;99.90;;;;;;5056435;28;19925;-69
2022/04/28 04:33:47;;;;;;;;;;;7.30;99.90;;;;;;5056177;28;20037;-71
2022/04/28 04:36:12;;;;;;;;;;;7.30;99.90;;;;;;5088739;28;19928;-71
2022/04/28 04:38:38;;;;;;;;;;;7.20;99.90;;;;;;5054820;28;19924;-70
2022/04/28 04:41:05;;;;;;;;;;;6.40;99.90;;;;;;5056163;28;19931;-69
2022/04/28 04:43:31;;;;;;;;;;;6.40;99.90;;;;;;5055903;28;20379;-71
2022/04/28 04:45:56;;;;;;;;;;;6.40;99.90;;;;;;5056119;28;20024;-69
2022/04/28 04:48:22;;;;;;;;;;;7.40;99.90;;;;;;5088716;28;20376;-72
2022/04/28 04:50:48;;;;;;;;;;;6.50;99.90;;;;;;5055950;28;19924;-70
2022/04/28 04:53:14;;;;;;;;;;;6.50;99.90;;;;;;5054457;28;19925;-71
2022/04/28 04:55:39;;;;;;;;;;;7.40;99.90;;;;;;5055865;28;19924;-71
2022/04/28 04:58:05;;;;;;;;;;;7.20;99.90;;;;;;5054656;28;19924;-71
2022/04/28 05:00:31;;;;;;;;;;;7.40;99.90;;;;;;5055677;28;20023;-71
2022/04/28 05:02:57;;;;;;;;;;;7.30;99.90;;;;;;5055394;28;20031;-69
2022/04/28 05:05:23;;;;;;;;;;;6.70;99.90;;;;;;5055538;28;19949;-69
2022/04/28 05:07:48;;;;;;;;;;;6.70;99.90;;;;;;5054542;28;19931;-71
2022/04/28 05:10:14;;;;;;;;;;;7.70;99.90;;;;;;5055366;28;19925;-71
2022/04/28 05:12:39;;;;;;;;;;;5.30;99.90;;;;;;5055556;28;19929;-71
2022/04/28 05:15:05;;;;;;;;;;;8.30;99.90;;;;;;5055535;28;19932;-71
2022/04/28 05:17:30;;;;;;;;;;;6.80;99.90;;;;;;5054388;28;19929;-71
2022/04/28 05:19:57;;;;;;;;;;;7.60;99.90;;;;;;5055127;28;19925;-69
2022/04/28 05:22:26;;;;;;;;;;;6.90;99.90;;;;;;5055212;28;20364;-70
2022/04/28 05:24:52;;;;;;;;;;;6.90;99.90;;;;;;5054968;28;20380;-70
2022/04/28 05:27:17;;;;;;;;;;;7.20;99.90;;;;;;5055378;28;19931;-71
2022/04/28 05:29:43;;;;;;;;;;;7.50;99.90;;;;;;5055206;28;19924;-70
2022/04/28 05:32:09;;;;;;;;;;;6.90;99.90;;;;;;5055155;28;19935;-70
2022/04/28 05:34:34;;;;;;;;;;;7.20;99.90;;;;;;5055013;28;19925;-69
2022/04/28 05:37:00;;;;;;;;;;;7.90;99.90;;;;;;5055005;28;19932;-69
2022/04/28 05:39:26;;;;;;;;;;;7.10;99.90;;;;;;5054850;28;19924;-70
2022/04/28 05:41:52;;;;;;;;;;;7.10;99.90;;;;;;5054762;28;19925;-70
2022/04/28 05:47:02;;;;;;;;;;;7.40;99.90;;;;;;5054835;28;19932;-69
2022/04/28 05:49:28;;;;;;;;;;;7.30;99.90;;;;;;5087403;28;19924;-70
2022/04/28 05:51:53;;;;;;;;;;;7.30;99.90;;;;;;5054714;28;19925;-71
2022/04/28 05:54:19;;;;;;;;;;;7.40;99.90;;;;;;5054779;28;20287;-71
2022/04/28 05:56:45;;;;;;;;;;;8.00;99.90;;;;;;5054685;28;19924;-71
2022/04/28 05:59:10;;;;;;;;;;;7.70;99.90;;;;;;5054626;28;19931;-71
2022/04/28 06:01:37;;;;;;;;;;;7.80;99.90;;;;;;5054482;28;19925;-70
2022/04/28 06:04:06;;;;;;;;;;;7.60;99.90;;;;;;5054428;28;20392;-71
2022/04/28 06:06:31;;;;;;;;;;;7.60;99.90;;;;;;5054391;28;19971;-69
2022/04/28 06:08:57;;;;;;;;;;;7.80;99.90;;;;;;5086912;28;19972;-70
2022/04/28 06:11:23;;;;;;;;;;;7.90;99.90;;;;;;5053553;28;19925;-71
2022/04/28 06:13:48;;;;;;;;;;;7.80;99.90;;;;;;5053578;28;20316;-69
2022/04/28 06:16:14;;;;;;;;;;;8.10;99.90;;;;;;5053338;28;20010;-71
2022/04/28 06:18:40;;;;;;;;;;;7.80;99.90;;;;;;5054216;28;20023;-70
2022/04/28 06:21:06;;;;;;;;;;;8.00;99.90;;;;;;5052855;28;19925;-69
2022/04/28 06:23:31;;;;;;;;;;;8.90;99.90;;;;;;5054020;28;19925;-69
2022/04/28 06:25:57;;;;;;;;;;;8.00;99.90;;;;;;5053905;28;19932;-71
2022/04/28 06:28:22;;;;;;;;;;;8.50;99.90;;;;;;5052958;28;19932;-71
2022/04/28 06:30:48;;;;;;;;;;;8.40;99.90;;;;;;5054106;28;19931;-71
2022/04/28 06:33:13;;;;;;;;;;;8.30;99.90;;;;;;5052140;28;19968;-69
2022/04/28 06:35:39;;;;;;;;;;;8.40;99.90;;;;;;5053933;28;19936;-71
2022/04/28 06:38:04;;;;;;;;;;;8.70;99.90;;;;;;5053834;28;19925;-71
2022/04/28 06:40:30;;;;;;;;;;;8.40;99.90;;;;;;5053650;28;19925;-70
2022/04/28 06:42:56;;;;;;;;;;;9.10;99.90;;;;;;5052802;28;20015;-71
2022/04/28 06:45:22;;;;;;;;;;;8.60;99.90;;;;;;5053857;28;19925;-71
2022/04/28 06:47:48;;;;;;;;;;;9.30;99.90;;;;;;5054051;28;20431;-70
2022/04/28 06:50:13;;;;;;;;;;;8.80;99.90;;;;;;5053538;28;20010;-70
2022/04/28 06:52:39;;;;;;;;;;;8.80;99.90;;;;;;5052400;28;20042;-69
2022/04/28 06:55:05;;;;;;;;;;;8.70;99.90;;;;;;5053505;28;19971;-70
2022/04/28 06:57:31;;;;;;;;;;;8.80;99.90;;;;;;5053762;28;19978;-71
2022/04/28 06:59:56;;;;;;;;;;;8.80;99.90;;;;;;5053572;28;19925;-71
2022/04/28 07:02:34;;;;;;;;;;;8.80;99.90;;;;;;5052232;28;19976;-71
2022/04/28 07:05:00;;;;;;;;;;;8.80;99.90;;;;;;5053423;28;19932;-70
2022/04/28 07:07:26;;;;;;;;;;;8.80;99.90;;;;;;5035849;28;19925;-70
2022/04/28 07:09:52;;;;;;;;;;;8.80;99.90;;;;;;5053320;28;19975;-69
2022/04/28 07:12:17;;;;;;;;;;;8.90;99.90;;;;;;5053644;28;19931;-71
2022/04/28 07:14:43;;;;;;;;;;;9.10;99.90;;;;;;5069409;28;20277;-72
2022/04/28 07:17:09;;;;;;;;;;;9.10;99.90;;;;;;5053499;28;19929;-71
2022/04/28 07:19:35;;;;;;;;;;;9.40;99.90;;;;;;5053112;28;19951;-70
2022/04/28 07:22:05;;;;;;;;;;;9.30;99.90;;;;;;5052353;28;19932;-70
2022/04/28 07:24:33;;;;;;;;;;;9.50;99.90;;;;;;5053659;28;19943;-70
2022/04/28 07:26:58;;;;;;;;;;;9.70;99.90;;;;;;5053478;28;19975;-70
2022/04/28 07:29:24;;;;;;;;;;;9.80;99.90;;;;;;5053360;28;20379;-71
2022/04/28 07:31:50;;;;;;;;;;;10.20;99.90;;;;;;5053330;28;19924;-71
2022/04/28 07:34:15;;;;;;;;;;;9.80;99.90;;;;;;5053197;28;19947;-72
2022/04/28 07:36:41;;;;;;;;;;;9.90;99.90;;;;;;5085729;28;19956;-68
2022/04/28 07:39:06;;;;;;;;;;;9.60;99.90;;;;;;5053197;28;19925;-69
2022/04/28 07:41:33;;;;;;;;;;;9.70;99.90;;;;;;5053445;28;19931;-69
2022/04/28 07:43:58;;;;;;;;;;;10.00;99.90;;;;;;5053844;28;19924;-70
2022/04/28 07:46:24;;;;;;;;;;;9.90;99.90;;;;;;5057153;28;19925;-71
2022/04/28 07:48:49;;;;;;;;;;;10.80;99.90;;;;;;5056041;28;20007;-70
2022/04/28 07:51:15;;;;;;;;;;;10.00;99.90;;;;;;5056125;28;20393;-69
2022/04/28 07:53:40;;;;;;;;;;;10.80;99.90;;;;;;5057107;28;19925;-70
2022/04/28 07:56:17;;;;;;;;;;;10.60;99.90;;;;;;5056795;28;19925;-70
2022/04/28 07:58:43;;;;;;;;;;;10.10;99.90;;;;;;5089573;28;19926;-70
2022/04/28 08:01:09;;;;;;;;;;;9.90;99.90;;;;;;5038905;28;19925;-70
2022/04/28 08:03:35;;;;;;;;;;;9.90;99.90;;;;;;5055414;28;19932;-70
2022/04/28 08:06:01;;;;;;;;;;;9.80;99.90;;;;;;5056540;28;19925;-70
2022/04/28 08:08:27;;;;;;;;;;;10.20;99.90;;;;;;5055303;28;19931;-71
2022/04/28 08:10:53;;;;;;;;;;;9.90;99.90;;;;;;5054628;28;19929;-71
2022/04/28 08:13:21;;;;;;;;;;;9.90;99.90;;;;;;5056349;28;19925;-70
2022/04/28 08:15:48;;;;;;;;;;;9.90;99.90;;;;;;5056103;28;19924;-70
2022/04/28 08:18:14;;;;;;;;;;;9.90;99.90;;;;;;5056235;28;20479;-70
2022/04/28 08:20:40;;;;;;;;;;;9.90;99.90;;;;;;5056092;28;19929;-71
2022/04/28 08:23:06;;;;;;;;;;;10.00;99.90;;;;;;5056064;28;19925;-70
2022/04/28 08:25:31;;;;;;;;;;;10.00;99.90;;;;;;5088591;28;20035;-72
2022/04/28 08:27:57;;;;;;;;;;;10.00;99.90;;;;;;5056271;28;19925;-71
2022/04/28 08:30:23;;;;;;;;;;;10.30;99.90;;;;;;5056221;28;20280;-72
2022/04/28 08:32:53;;;;;;;;;;;10.00;99.90;;;;;;5056094;28;20001;-71
2022/04/28 08:35:19;;;;;;;;;;;10.00;99.90;;;;;;5054966;28;20391;-71
2022/04/28 08:37:45;;;;;;;;;;;10.00;99.90;;;;;;5055941;28;19932;-70
2022/04/28 08:40:10;;;;;;;;;;;10.10;99.90;;;;;;5054492;28;20295;-70
2022/04/28 08:42:36;;;;;;;;;;;10.10;99.90;;;;;;5055916;28;20288;-71
2022/04/28 08:45:02;;;;;;;;;;;10.20;99.90;;;;;;5054756;28;20330;-70
2022/04/28 08:47:28;;;;;;;;;;;10.30;99.90;;;;;;5055782;28;19971;-72
2022/04/28 08:49:54;;;;;;;;;;;10.20;99.90;;;;;;5055708;28;19928;-70
2022/04/28 08:52:19;;;;;;;;;;;10.20;99.90;;;;;;5055625;28;19951;-70
2022/04/28 08:54:46;;;;;;;;;;;10.60;99.90;;;;;;5055309;28;19924;-71
2022/04/28 08:57:13;;;;;;;;;;;10.40;99.90;;;;;;5055637;28;19925;-70
2022/04/28 08:59:39;;;;;;;;;;;10.40;99.90;;;;;;5054557;28;19935;-72
2022/04/28 09:02:04;;;;;;;;;;;10.40;99.90;;;;;;5055220;28;19924;-71
2022/04/28 09:04:30;;;;;;;;;;;10.40;99.90;;;;;;5055379;28;20462;-70
2022/04/28 09:06:56;;;;;;;;;;;10.50;99.90;;;;;;5055421;28;19931;-72
2022/04/28 09:09:23;;;;;;;;;;;10.70;99.90;;;;;;5087774;28;19974;-70
2022/04/28 09:11:50;;;;;;;;;;;10.70;99.90;;;;;;5055134;28;20394;-71
2022/04/28 09:14:18;;;;;;;;;;;10.50;99.90;;;;;;5055391;28;19924;-71
2022/04/28 09:16:46;;;;;;;;;;;10.60;99.90;;;;;;5055313;28;20296;-71
2022/04/28 09:19:12;;;;;;;;;;;10.70;99.90;;;;;;5055071;28;19924;-71
2022/04/28 09:21:39;;;;;;;;;;;10.70;99.90;;;;;;5055222;28;20401;-71
2022/04/28 09:24:04;;;;;;;;;;;10.70;99.90;;;;;;5055066;28;19932;-71
2022/04/28 09:26:32;;;;;;;;;;;10.80;99.90;;;;;;5054870;28;19925;-72
2022/04/28 09:29:02;;;;;;;;;;;10.80;99.90;;;;;;5055060;28;20023;-70
2022/04/28 09:31:29;;;;;;;;;;;11.10;99.90;;;;;;5055051;28;19924;-70
2022/04/28 09:33:54;;;;;;;;;;;10.30;99.90;;;;;;5087337;28;20418;-70
2022/04/28 09:36:20;;;;;;;;;;;10.90;99.90;;;;;;5055012;28;19929;-71
2022/04/28 09:38:51;;;;;;;;;;;10.90;99.90;;;;;;5055333;28;20291;-71
2022/04/28 09:44:01;;;;;;;;;;;11.00;99.90;;;;;;5053773;28;19932;-71
2022/04/28 09:46:26;;;;;;;;;;;10.70;99.90;;;;;;5070044;28;19925;-71
2022/04/28 09:48:52;;;;;;;;;;;11.00;99.90;;;;;;5054715;28;19924;-70
2022/04/28 09:51:22;;;;;;;;;;;11.00;99.90;;;;;;5053812;28;19925;-70
2022/04/28 09:53:48;;;;;;;;;;;11.10;99.90;;;;;;5054624;28;19925;-70
2022/04/28 09:56:14;;;;;;;;;;;11.20;99.90;;;;;;5054814;28;20291;-71
2022/04/28 09:58:40;;;;;;;;;;;11.10;99.90;;;;;;5053621;28;19924;-72
2022/04/28 10:01:06;;;;;;;;;;;11.20;99.90;;;;;;5054514;28;20387;-70
2022/04/28 10:03:33;;;;;;;;;;;10.80;99.90;;;;;;5086615;28;19971;-70
2022/04/28 10:06:05;;;;;;;;;;;11.30;99.90;;;;;;5033468;28;20161;-71
2022/04/28 10:08:34;;;;;;;;;;;11.30;99.90;;;;;;5034131;28;19939;-70
2022/04/28 10:11:01;;;;;;;;;;;11.40;99.90;;;;;;5033589;28;20015;-71
2022/04/28 10:13:28;;;;;;;;;;;11.30;99.90;;;;;;5034402;28;20019;-71
2022/04/28 10:16:01;;;;;;;;;;;11.70;99.90;;;;;;5033089;28;19931;-69
2022/04/28 10:18:33;;;;;;;;;;;11.30;99.90;;;;;;5066557;28;19963;-70
2022/04/28 10:21:00;;;;;;;;;;;11.30;99.90;;;;;;5034100;28;19936;-70
2022/04/28 10:34:30;;;;;;;;;;;11.50;99.90;;;;;;5033979;28;19980;-71
2022/04/28 10:37:05;;;;;;;;;;;11.50;99.90;;;;;;5032802;28;19960;-69
2022/04/28 10:39:38;;;;;;;;;;;12.10;99.90;;;;;;5066162;28;19925;-71
2022/04/28 10:42:22;;;;;;;;;;;11.60;99.90;;;;;;5032967;28;19925;-71
2022/04/28 10:44:55;;;;;;;;;;;11.50;99.90;;;;;;5033901;28;20292;-70
2022/04/28 10:47:37;;;;;;;;;;;11.60;99.90;;;;;;5042872;28;19943;-70
2022/04/28 10:50:03;;;;;;;;;;;11.60;99.90;;;;;;5033174;28;19932;-71
2022/04/28 10:52:29;;;;;;;;;;;11.80;99.90;;;;;;5032734;28;19925;-69
2022/04/28 10:54:58;;;;;;;;;;;12.00;99.90;;;;;;5034039;28;20012;-70
2022/04/28 10:57:29;;;;;;;;;;;11.90;99.90;;;;;;5033858;28;20304;-73
2022/04/28 10:59:55;;;;;;;;;;;11.80;99.90;;;;;;5033549;28;19925;-71
2022/04/28 11:02:21;;;;;;;;;;;11.80;99.90;;;;;;5032145;28;19940;-71
2022/04/28 11:04:51;;;;;;;;;;;11.90;99.90;;;;;;5042560;28;19932;-72
2022/04/28 11:07:20;;;;;;;;;;;11.90;99.90;;;;;;5033525;28;19935;-70
2022/04/28 11:09:58;;;;;;;;;;;12.50;99.90;;;;;;5042071;28;20289;-70
2022/04/28 11:12:25;;;;;;;;;;;12.00;99.90;;;;;;5041741;28;20022;-70
2022/04/28 11:14:52;;;;;;;;;;;12.50;99.90;;;;;;5048427;28;19925;-70
2022/04/28 11:17:19;;;;;;;;;;;12.00;99.90;;;;;;5053422;28;19980;-70
2022/04/28 11:19:45;;;;;;;;;;;12.80;99.90;;;;;;5056750;28;19924;-73
2022/04/28 11:22:11;;;;;;;;;;;12.00;99.90;;;;;;5057800;28;19925;-73
2022/04/28 11:24:43;;;;;;;;;;;12.00;99.90;;;;;;5057530;28;19925;-70
2022/04/28 11:27:13;;;;;;;;;;;12.00;99.90;;;;;;5057524;28;19925;-71
2022/04/28 11:29:42;;;;;;;;;;;12.10;99.90;;;;;;5056520;28;20300;-69
2022/04/28 11:32:11;;;;;;;;;;;11.90;99.90;;;;;;5057365;28;20293;-70
2022/04/28 11:34:37;;;;;;;;;;;12.00;99.90;;;;;;5057119;28;20020;-71
2022/04/28 11:37:16;;;;;;;;;;;12.40;99.90;;;;;;5057303;28;19924;-71
2022/04/28 11:39:48;;;;;;;;;;;12.00;99.90;;;;;;5057050;28;20445;-71
2022/04/28 11:42:16;;;;;;;;;;;12.00;99.90;;;;;;5057210;28;19925;-72
2022/04/28 11:44:45;;;;;;;;;;;12.20;99.90;;;;;;5057089;28;19971;-70
2022/04/28 11:47:10;;;;;;;;;;;12.00;99.90;;;;;;5056987;28;19933;-71
2022/04/28 11:49:40;;;;;;;;;;;12.20;99.90;;;;;;5057122;28;20380;-69
2022/04/28 11:52:25;;;;;;;;;;;12.10;99.90;;;;;;5057053;28;19925;-70
2022/04/28 11:54:51;;;;;;;;;;;12.10;99.90;;;;;;5056895;28;19931;-72
2022/04/28 11:57:17;;;;;;;;;;;12.10;99.90;;;;;;5055533;28;19925;-73
2022/04/28 11:59:43;;;;;;;;;;;12.10;99.90;;;;;;5056647;28;19925;-71
2022/04/28 12:02:28;;;;;;;;;;;12.10;99.90;;;;;;5055734;28;19924;-72
2022/04/28 12:04:54;;;;;;;;;;;12.20;99.90;;;;;;5056622;28;19979;-73
2022/04/28 12:07:20;;;;;;;;;;;12.20;99.90;;;;;;5056610;28;19972;-70
2022/04/28 12:15:15;;;;;;;;;;;12.20;99.90;;;;;;5055715;28;19932;-71
2022/04/28 12:20:37;;;;;;;;;;;12.10;99.90;;;;;;5056243;28;19931;-73
2022/04/28 12:23:03;;;;;;;;;;;12.00;99.90;;;;;;5055558;28;19924;-71
2022/04/28 12:25:31;;;;;;;;;;;12.00;99.90;;;;;;5056414;28;19972;-70
2022/04/28 12:27:57;;;;;;;;;;;12.00;99.90;;;;;;5056366;28;19932;-72
2022/04/28 12:30:23;;;;;;;;;;;12.10;99.90;;;;;;5055415;28;20002;-71
2022/04/28 12:32:49;;;;;;;;;;;12.10;99.90;;;;;;5056323;28;20403;-69
2022/04/28 12:35:30;;;;;;;;;;;12.10;99.90;;;;;;5055599;28;20019;-71
2022/04/28 12:37:59;;;;;;;;;;;12.10;99.90;;;;;;5056531;28;20377;-71
2022/04/28 12:40:26;;;;;;;;;;;12.10;99.90;;;;;;5055982;28;19970;-71
2022/04/28 12:42:53;;;;;;;;;;;12.10;99.90;;;;;;5055963;28;20304;-70
2022/04/28 12:45:41;;;;;;;;;;;12.50;99.90;;;;;;5055964;28;20042;-72
2022/04/28 12:48:23;;;;;;;;;;;11.70;99.90;;;;;;5055806;28;19931;-70
2022/04/28 12:50:49;;;;;;;;;;;12.10;99.90;;;;;;5055892;28;19925;-71
2022/04/28 12:53:28;;;;;;;;;;;12.20;99.90;;;;;;5055943;28;19932;-70
2022/04/28 12:56:01;;;;;;;;;;;12.10;99.90;;;;;;5055664;28;20313;-71
2022/04/28 12:58:26;;;;;;;;;;;12.20;99.90;;;;;;5055636;28;20376;-70
2022/04/28 13:00:52;;;;;;;;;;;12.20;99.90;;;;;;5055821;28;19932;-71
2022/04/28 13:03:27;;;;;;;;;;;12.20;99.90;;;;;;5055359;28;20007;-72
2022/04/28 13:05:53;;;;;;;;;;;12.50;99.90;;;;;;5055450;28;19925;-70
2022/04/28 13:08:19;;;;;;;;;;;12.20;99.90;;;;;;5055547;28;19931;-70
2022/04/28 13:10:44;;;;;;;;;;;12.30;99.90;;;;;;5054457;28;19925;-71
2022/04/28 13:13:10;;;;;;;;;;;12.30;99.90;;;;;;5055276;28;19929;-71
2022/04/28 13:15:36;;;;;;;;;;;12.40;99.90;;;;;;5055538;28;20446;-70
2022/04/28 13:18:01;;;;;;;;;;;12.40;99.90;;;;;;5055615;28;19986;-73
2022/04/28 13:20:27;;;;;;;;;;;12.80;99.90;;;;;;5087752;28;20319;-71
2022/04/28 13:22:52;;;;;;;;;;;12.90;99.90;;;;;;5055287;28;19929;-70
2022/04/28 13:25:18;;;;;;;;;;;12.80;99.90;;;;;;5055235;28;19970;-70
2022/04/28 13:27:44;;;;;;;;;;;12.60;99.90;;;;;;5055040;28;19925;-71
2022/04/28 13:30:10;;;;;;;;;;;12.60;99.90;;;;;;5055346;28;19936;-72
2022/04/28 13:32:36;;;;;;;;;;;12.60;99.90;;;;;;5055277;28;20384;-73
2022/04/28 13:35:02;;;;;;;;;;;12.60;99.90;;;;;;5055030;28;19924;-70
2022/04/28 13:37:28;;;;;;;;;;;12.90;99.90;;;;;;5054759;28;19932;-70
2022/04/28 13:39:54;;;;;;;;;;;12.50;99.90;;;;;;5053561;28;19929;-70
2022/04/28 13:42:19;;;;;;;;;;;12.50;99.90;;;;;;5054727;28;20449;-71
2022/04/28 13:44:45;;;;;;;;;;;12.40;99.90;;;;;;5054708;28;19971;-71
2022/04/28 13:47:11;;;;;;;;;;;12.50;99.90;;;;;;5054949;28;19929;-72
2022/04/28 13:49:36;;;;;;;;;;;12.50;99.90;;;;;;5054739;28;19925;-70
2022/04/28 13:52:02;;;;;;;;;;;12.50;99.90;;;;;;5054943;28;19932;-71
2022/04/28 13:54:27;;;;;;;;;;;12.60;99.90;;;;;;5053314;28;20376;-71
2022/04/28 13:56:53;;;;;;;;;;;12.60;99.90;;;;;;5054688;28;19924;-70
2022/04/28 13:59:18;;;;;;;;;;;12.50;99.90;;;;;;5054466;28;19924;-69
2022/04/28 14:01:46;;;;;;;;;;;12.50;99.90;;;;;;5054568;28;19925;-71
2022/04/28 14:04:14;;;;;;;;;;;12.40;99.90;;;;;;5054404;28;19925;-70
2022/04/28 14:06:40;;;;;;;;;;;12.40;99.90;;;;;;5054471;28;19986;-71
2022/04/28 14:09:05;;;;;;;;;;;12.50;99.90;;;;;;5053297;28;19974;-69
2022/04/28 14:11:33;;;;;;;;;;;12.50;99.90;;;;;;5054237;28;19924;-70
2022/04/28 14:13:58;;;;;;;;;;;12.60;99.90;;;;;;5052602;28;19928;-70
2022/04/28 14:16:24;;;;;;;;;;;12.70;99.90;;;;;;5054467;28;19978;-70
2022/04/28 14:18:49;;;;;;;;;;;12.70;99.90;;;;;;5054439;28;19929;-71
2022/04/28 14:21:15;;;;;;;;;;;12.70;99.90;;;;;;5053024;28;19925;-71
2022/04/28 14:23:41;;;;;;;;;;;12.70;99.90;;;;;;5054397;28;19925;-72
2022/04/28 14:26:07;;;;;;;;;;;13.00;99.90;;;;;;5051874;28;20433;-70
2022/04/28 14:28:33;;;;;;;;;;;13.00;99.90;;;;;;5034486;28;19925;-70
2022/04/28 14:30:58;;;;;;;;;;;13.10;99.90;;;;;;5034055;28;20316;-71
2022/04/28 14:33:24;;;;;;;;;;;13.10;99.90;;;;;;5034240;28;20391;-70
2022/04/28 14:35:50;;;;;;;;;;;13.10;99.90;;;;;;5032672;28;20023;-71
2022/04/28 14:38:18;;;;;;;;;;;13.80;99.90;;;;;;5034033;28;19931;-69
2022/04/28 14:40:44;;;;;;;;;;;13.90;99.90;;;;;;5033769;28;19924;-71
2022/04/28 14:43:10;;;;;;;;;;;13.20;99.90;;;;;;5033865;28;19936;-71
2022/04/28 14:45:35;;;;;;;;;;;13.20;99.90;;;;;;5033843;28;19925;-71
2022/04/28 14:48:01;;;;;;;;;;;13.30;99.90;;;;;;5033994;28;19932;-70
2022/04/28 14:53:12;;;;;;;;;;;13.30;99.90;;;;;;5033236;28;19929;-71
2022/04/28 14:55:38;;;;;;;;;;;13.30;99.90;;;;;;5032956;28;20447;-70
2022/04/28 14:58:06;;;;;;;;;;;13.40;99.90;;;;;;5033663;28;20004;-70
2022/04/28 15:00:32;;;;;;;;;;;13.50;99.90;;;;;;5033751;28;19925;-69
2022/04/28 15:02:58;;;;;;;;;;;13.30;99.90;;;;;;5065739;28;19926;-70